createdAt,value
2022-09-12T00:02:41.638Z,100.00
2022-09-12T00:07:43.880Z,100.00
2022-09-12T00:12:46.062Z,100.00
2022-09-12T00:17:48.126Z,100.00
2022-09-12T00:22:50.206Z,100.00
2022-09-12T00:27:52.638Z,100.00
2022-09-12T00:32:55.073Z,100.00
2022-09-12T00:37:57.189Z,100.00
2022-09-12T00:42:59.299Z,100.00
2022-09-12T00:48:04.601Z,100.00
2022-09-12T00:53:09.238Z,100.00
2022-09-12T00:58:20.587Z,100.00
2022-09-12T01:03:24.126Z,100.00
2022-09-12T01:08:27.615Z,100.00
2022-09-12T01:13:30.440Z,100.00
2022-09-12T01:19:01.942Z,100.00
2022-09-12T01:24:10.143Z,100.00
2022-09-12T01:29:31.020Z,100.00
2022-09-12T01:34:46.350Z,100.00
2022-09-12T01:40:17.315Z,100.00
2022-09-12T01:45:33.744Z,100.00
2022-09-12T01:50:42.546Z,100.00
2022-09-12T01:55:51.801Z,100.00
2022-09-12T02:01:03.210Z,100.00
2022-09-12T02:06:47.587Z,100.00
2022-09-12T02:11:52.736Z,100.00
2022-09-12T02:17:05.320Z,100.00
2022-09-12T02:22:12.379Z,100.00
2022-09-12T02:27:20.008Z,100.00
2022-09-12T02:32:51.766Z,100.00
2022-09-12T02:38:09.739Z,100.00
2022-09-12T02:43:12.081Z,100.00
2022-09-12T02:48:21.660Z,100.00
2022-09-12T02:53:24.639Z,100.00
2022-09-12T02:58:31.754Z,100.00
2022-09-12T03:04:08.147Z,100.00
2022-09-12T03:09:26.852Z,100.00
2022-09-12T03:14:50.929Z,100.00
2022-09-12T03:20:37.704Z,100.00
2022-09-12T03:25:52.167Z,100.00
2022-09-12T03:30:56.676Z,100.00
2022-09-12T03:35:59.120Z,100.00
2022-09-12T03:41:01.449Z,100.00
2022-09-12T03:46:03.733Z,100.00
2022-09-12T03:51:08.506Z,100.00
2022-09-12T03:56:13.892Z,100.00
2022-09-12T04:01:18.362Z,100.00
2022-09-12T04:06:23.211Z,100.00
2022-09-12T04:11:25.649Z,100.00
2022-09-12T04:16:28.013Z,100.00
2022-09-12T04:21:30.215Z,100.00
2022-09-12T04:26:32.336Z,100.00
2022-09-12T04:31:34.608Z,100.00
2022-09-12T04:36:37.459Z,100.00
2022-09-12T04:41:42.126Z,100.00
2022-09-12T04:46:46.935Z,100.00
2022-09-12T04:51:49.447Z,100.00
2022-09-12T04:56:52.755Z,100.00
2022-09-12T05:01:55.129Z,100.00
2022-09-12T05:06:57.492Z,100.00
2022-09-12T05:12:04.650Z,100.00
2022-09-12T05:17:07.616Z,100.00
2022-09-12T05:22:10.120Z,100.00
2022-09-12T05:27:12.208Z,100.00
2022-09-12T05:32:14.418Z,100.00
2022-09-12T05:37:16.634Z,100.00
2022-09-12T05:42:18.837Z,100.00
2022-09-12T05:47:21.214Z,95.11
2022-09-12T05:52:27.810Z,53.96
2022-09-12T05:57:30.044Z,41.29
2022-09-12T06:02:35.158Z,40.00
2022-09-12T06:07:37.882Z,36.53
2022-09-12T06:12:40.264Z,34.02
2022-09-12T06:17:42.384Z,35.87
2022-09-12T06:22:44.618Z,34.28
2022-09-12T06:27:47.813Z,34.31
2022-09-12T06:32:50.026Z,32.48
2022-09-12T06:37:52.533Z,42.52
2022-09-12T06:42:54.816Z,37.35
2022-09-12T06:48:13.357Z,34.28
2022-09-12T06:53:15.585Z,32.61
2022-09-12T06:58:17.704Z,33.51
2022-09-12T07:03:19.921Z,33.34
2022-09-12T07:08:22.422Z,35.41
2022-09-12T07:13:24.816Z,37.71
2022-09-12T07:18:27.479Z,39.15
2022-09-12T07:23:30.598Z,43.95
2022-09-12T07:28:34.835Z,45.18
2022-09-12T07:33:37.961Z,46.20
2022-09-12T07:38:40.787Z,42.12
2022-09-12T07:43:43.033Z,43.98
2022-09-12T07:48:46.134Z,44.45
2022-09-12T07:53:49.432Z,45.24
2022-09-12T07:58:51.697Z,44.11
2022-09-12T08:03:57.159Z,47.68
2022-09-12T08:09:00.261Z,46.52
2022-09-12T08:14:05.894Z,42.79
2022-09-12T08:19:08.266Z,43.17
2022-09-12T08:24:13.211Z,44.82
2022-09-12T08:29:15.678Z,43.47
2022-09-12T08:34:19.426Z,46.12
2022-09-12T08:39:22.362Z,45.83
2022-09-12T08:44:45.261Z,45.53
2022-09-12T08:50:12.340Z,42.33
2022-09-12T08:55:34.651Z,47.04
2022-09-12T09:01:07.566Z,41.25
2022-09-12T09:06:42.529Z,40.42
2022-09-12T09:12:12.499Z,40.40
2022-09-12T09:17:29.290Z,46.09
2022-09-12T09:22:43.762Z,43.67
2022-09-12T09:28:11.902Z,42.50
2022-09-12T09:33:26.748Z,40.08
2022-09-12T09:38:42.633Z,43.34
2022-09-12T09:43:45.262Z,43.89
2022-09-12T09:48:51.612Z,43.30
2022-09-12T09:54:02.125Z,42.81
2022-09-12T09:59:16.424Z,40.16
2022-09-12T10:04:32.757Z,39.85
2022-09-12T10:09:36.604Z,43.53
2022-09-12T10:14:41.415Z,41.20
2022-09-12T10:19:45.545Z,40.21
2022-09-12T10:25:01.694Z,41.33
2022-09-12T10:30:15.933Z,40.23
2022-09-12T10:35:24.911Z,43.43
2022-09-12T10:40:31.951Z,42.34
2022-09-12T10:45:37.918Z,43.52
2022-09-12T10:50:42.586Z,47.63
2022-09-12T10:56:09.146Z,42.73
2022-09-12T11:01:46.222Z,44.26
2022-09-12T11:07:26.027Z,47.05
2022-09-12T11:12:50.012Z,44.77
2022-09-12T11:18:25.155Z,41.99
2022-09-12T11:24:03.050Z,43.26
2022-09-12T11:29:36.249Z,43.60
2022-09-12T11:34:47.827Z,45.06
2022-09-12T11:39:55.635Z,43.68
2022-09-12T11:45:16.575Z,43.34
2022-09-12T11:50:27.190Z,43.59
2022-09-12T11:55:39.957Z,43.55
2022-09-12T12:00:47.470Z,44.13
2022-09-12T12:06:03.274Z,43.63
2022-09-12T12:11:08.336Z,47.42
2022-09-12T12:16:22.102Z,49.14
2022-09-12T12:21:46.700Z,48.72
2022-09-12T12:26:59.046Z,49.18
2022-09-12T12:32:04.402Z,46.86
2022-09-12T12:37:22.196Z,45.98
2022-09-12T12:42:34.018Z,46.31
2022-09-12T12:47:36.272Z,48.58
2022-09-12T12:53:25.507Z,50.25
2022-09-12T12:58:42.927Z,47.71
2022-09-12T13:03:53.925Z,48.81
2022-09-12T13:09:09.715Z,50.06
2022-09-12T13:14:43.118Z,49.02
2022-09-12T13:19:47.533Z,49.75
2022-09-12T13:24:53.811Z,48.86
2022-09-12T13:30:13.947Z,49.84
2022-09-12T13:35:42.858Z,50.71
2022-09-12T13:41:15.841Z,52.32
2022-09-12T13:46:46.556Z,52.33
2022-09-12T13:52:18.674Z,51.13
2022-09-12T13:58:00.215Z,48.71
2022-09-12T14:03:56.742Z,48.48
2022-09-12T14:09:01.678Z,47.88
2022-09-12T14:14:18.852Z,48.32
2022-09-12T14:19:25.100Z,49.44
2022-09-12T14:24:27.827Z,51.68
2022-09-12T14:29:31.363Z,53.69
2022-09-12T14:34:33.688Z,53.30
2022-09-12T14:39:46.033Z,55.68
2022-09-12T14:44:59.318Z,52.83
2022-09-12T14:50:01.850Z,53.56
2022-09-12T14:55:22.212Z,51.45
2022-09-12T15:00:27.430Z,51.89
2022-09-12T15:05:30.484Z,50.58
2022-09-12T15:10:37.912Z,51.41
2022-09-12T15:15:42.306Z,52.25
2022-09-12T15:20:46.640Z,51.29
2022-09-12T15:25:49.089Z,51.13
2022-09-12T15:30:53.644Z,51.05
2022-09-12T15:35:56.096Z,50.09
2022-09-12T15:40:58.216Z,50.24
2022-09-12T15:46:04.704Z,49.43
2022-09-12T15:51:15.250Z,51.21
2022-09-12T15:56:21.379Z,51.27
2022-09-12T16:01:23.951Z,51.91
2022-09-12T16:06:27.973Z,52.66
2022-09-12T16:11:30.310Z,54.63
2022-09-12T16:16:32.898Z,54.10
2022-09-12T16:21:38.403Z,55.45
2022-09-12T16:26:40.869Z,58.96
2022-09-12T16:31:46.232Z,59.47
2022-09-12T16:36:48.546Z,57.63
2022-09-12T16:42:27.604Z,59.98
2022-09-12T16:47:32.511Z,59.70
2022-09-12T16:52:35.541Z,60.66
2022-09-12T16:57:38.291Z,61.98
2022-09-12T17:02:40.720Z,64.01
2022-09-12T17:07:43.137Z,67.92
2022-09-12T17:12:45.406Z,64.41
2022-09-12T17:17:47.839Z,70.37
2022-09-12T17:22:50.001Z,71.46
2022-09-12T17:27:52.217Z,68.11
2022-09-12T17:32:54.657Z,75.07
2022-09-12T17:37:56.858Z,77.82
2022-09-12T17:42:59.289Z,74.48
2022-09-12T17:48:03.102Z,80.45
2022-09-12T17:53:07.100Z,87.37
2022-09-12T17:58:11.274Z,87.66
2022-09-12T18:03:17.991Z,95.37
2022-09-12T18:08:26.235Z,92.72
2022-09-12T18:13:29.863Z,94.83
2022-09-12T18:18:38.188Z,100.00
2022-09-12T18:23:40.531Z,96.06
2022-09-12T18:28:44.396Z,95.35
2022-09-12T18:33:46.921Z,91.46
2022-09-12T18:38:49.481Z,92.90
2022-09-12T18:44:02.759Z,88.95
2022-09-12T18:49:05.020Z,78.57
2022-09-12T18:54:13.162Z,77.34
2022-09-12T18:59:33.882Z,76.17
2022-09-12T19:04:37.223Z,79.59
2022-09-12T19:09:39.730Z,72.43
2022-09-12T19:14:41.872Z,75.94
2022-09-12T19:19:44.357Z,75.38
2022-09-12T19:24:46.645Z,75.85
2022-09-12T19:29:49.176Z,76.76
2022-09-12T19:34:51.511Z,75.21
2022-09-12T19:39:53.721Z,74.95
2022-09-12T19:44:56.183Z,76.13
2022-09-12T19:49:58.535Z,78.42
2022-09-12T19:55:00.645Z,76.50
2022-09-12T20:00:05.945Z,80.88
2022-09-12T20:05:10.937Z,75.77
2022-09-12T20:10:44.070Z,76.32
2022-09-12T20:15:55.712Z,76.08
2022-09-12T20:20:58.367Z,74.44
2022-09-12T20:26:05.017Z,75.00
2022-09-12T20:31:15.626Z,76.56
2022-09-12T20:36:20.771Z,74.92
2022-09-12T20:41:23.931Z,77.03
2022-09-12T20:46:28.347Z,77.13
2022-09-12T20:51:30.869Z,77.90
2022-09-12T20:56:35.854Z,78.59
2022-09-12T21:01:38.170Z,77.93
2022-09-12T21:06:41.086Z,79.52
2022-09-12T21:11:43.268Z,79.71
2022-09-12T21:16:45.415Z,78.26
2022-09-12T21:21:48.011Z,79.51
2022-09-12T21:26:50.345Z,80.19
2022-09-12T21:31:52.643Z,81.39
2022-09-12T21:36:54.784Z,80.57
2022-09-12T21:41:57.238Z,78.52
2022-09-12T21:46:59.530Z,78.46
2022-09-12T21:52:02.096Z,79.03
2022-09-12T21:57:04.686Z,81.12
2022-09-12T22:02:08.887Z,79.70
2022-09-12T22:07:11.344Z,78.46
2022-09-12T22:12:13.919Z,77.83
2022-09-12T22:17:16.651Z,78.34
2022-09-12T22:22:37.175Z,78.19
2022-09-12T22:27:39.660Z,78.04
2022-09-12T22:32:42.042Z,78.18
2022-09-12T22:37:44.931Z,79.84
2022-09-12T22:42:47.163Z,78.50
2022-09-12T22:47:49.740Z,80.28
2022-09-12T22:52:53.262Z,80.04
2022-09-12T22:57:55.620Z,81.02
2022-09-12T23:02:58.582Z,84.71
2022-09-12T23:08:01.095Z,82.35
2022-09-12T23:13:03.802Z,82.07
2022-09-12T23:18:06.188Z,82.43
2022-09-12T23:23:08.443Z,82.73
2022-09-12T23:28:10.569Z,83.92
2022-09-12T23:33:12.654Z,84.55
2022-09-12T23:38:16.199Z,83.82
2022-09-12T23:43:18.488Z,84.09
2022-09-12T23:48:20.745Z,84.72
2022-09-12T23:53:24.059Z,84.25
2022-09-12T23:58:26.491Z,84.73
